Time;durP1;ratioP1;P1;durP2;ratioP2;P2;SDS_P1;SDS_P2;PMS_P1;PMS_P2;Temp;Humidity;BMP_temperature;BMP_pressure;BME280_temperature;BME280_humidity;BME280_pressure;Samples;Min_cycle;Max_cycle;Signal;HPM_P1;HPM_P2
2023/10/27 00:00:57;;;;;;;17.33;11.10;;;10.10;99.90;;;;;;5077800;28;20097;-74
2023/10/27 00:03:24;;;;;;;17.30;11.38;;;10.00;99.90;;;;;;5072738;28;20486;-75
2023/10/27 00:05:51;;;;;;;16.90;11.23;;;10.00;99.90;;;;;;5077859;28;20051;-75
2023/10/27 00:08:19;;;;;;;18.15;10.90;;;10.00;99.90;;;;;;5072985;28;20093;-75
2023/10/27 00:10:46;;;;;;;15.82;10.50;;;10.10;99.90;;;;;;5077162;28;20051;-75
2023/10/27 00:13:13;;;;;;;17.10;11.73;;;10.10;99.90;;;;;;5077813;28;20060;-75
2023/10/27 00:15:40;;;;;;;14.82;10.82;;;10.00;99.90;;;;;;5077319;28;20576;-77
2023/10/27 00:18:07;;;;;;;18.08;11.68;;;10.10;99.90;;;;;;5077185;28;20446;-76
2023/10/27 00:20:34;;;;;;;17.52;12.35;;;10.10;99.90;;;;;;5077422;28;20450;-76
2023/10/27 00:23:01;;;;;;;18.02;12.07;;;10.10;99.90;;;;;;5077268;28;20040;-75
2023/10/27 00:25:29;;;;;;;17.35;11.75;;;10.10;99.90;;;;;;5076805;28;20484;-75
2023/10/27 00:27:56;;;;;;;17.95;11.75;;;10.10;99.90;;;;;;5077636;28;20051;-75
2023/10/27 00:30:23;;;;;;;16.67;11.40;;;10.20;99.90;;;;;;5077176;28;20101;-76
2023/10/27 00:32:49;;;;;;;17.70;11.55;;;10.10;99.90;;;;;;5076797;28;20059;-76
2023/10/27 00:35:16;;;;;;;17.33;12.18;;;10.10;99.90;;;;;;5071621;28;20040;-75
2023/10/27 00:37:43;;;;;;;18.45;11.52;;;10.10;99.90;;;;;;5077200;28;20052;-76
2023/10/27 00:40:11;;;;;;;17.10;11.75;;;10.10;99.90;;;;;;5094669;28;20048;-76
2023/10/27 00:42:41;;;;;;;18.77;11.50;;;10.00;99.90;;;;;;5076879;28;20044;-76
2023/10/27 00:45:09;;;;;;;19.23;12.02;;;10.10;99.90;;;;;;5077222;28;20048;-76
2023/10/27 00:47:36;;;;;;;17.30;11.82;;;10.00;99.90;;;;;;5071894;28;20044;-77
2023/10/27 00:50:04;;;;;;;16.63;10.60;;;10.00;99.90;;;;;;5095296;28;20047;-76
2023/10/27 00:52:31;;;;;;;15.27;10.38;;;10.00;99.90;;;;;;5072337;28;20109;-75
2023/10/27 00:54:58;;;;;;;15.82;10.20;;;10.00;99.90;;;;;;5076728;28;20048;-76
2023/10/27 00:57:28;;;;;;;14.07;9.95;;;10.00;99.90;;;;;;5077033;28;20089;-76
2023/10/27 00:59:57;;;;;;;16.08;10.50;;;10.00;99.90;;;;;;5076216;28;20059;-76
2023/10/27 01:02:23;;;;;;;15.95;10.70;;;10.00;99.90;;;;;;5076517;28;20438;-75
2023/10/27 01:04:50;;;;;;;13.82;9.73;;;10.00;99.90;;;;;;5076559;28;20040;-76
2023/10/27 01:07:17;;;;;;;16.17;11.27;;;10.00;99.90;;;;;;5075972;28;20040;-76
2023/10/27 01:09:45;;;;;;;14.52;10.68;;;10.00;99.90;;;;;;5076185;28;20052;-75
2023/10/27 01:12:12;;;;;;;16.42;10.98;;;10.00;99.90;;;;;;5076068;28;20136;-76
2023/10/27 01:14:39;;;;;;;16.60;10.90;;;10.00;99.90;;;;;;5075957;28;20048;-75
2023/10/27 01:17:07;;;;;;;15.90;10.27;;;10.00;99.90;;;;;;5076488;28;20407;-75
2023/10/27 01:19:36;;;;;;;15.68;10.45;;;10.00;99.90;;;;;;5089873;28;20101;-76
2023/10/27 01:22:03;;;;;;;16.00;10.93;;;10.00;99.90;;;;;;5075695;28;20048;-75
2023/10/27 01:24:31;;;;;;;17.52;10.30;;;10.00;99.90;;;;;;5076342;28;20135;-75
2023/10/27 01:26:59;;;;;;;13.65;9.98;;;10.00;99.90;;;;;;5076278;28;20048;-76
2023/10/27 01:29:28;;;;;;;16.02;10.60;;;10.10;99.90;;;;;;5074567;28;20499;-75
2023/10/27 01:31:55;;;;;;;15.20;10.68;;;10.10;99.90;;;;;;5076239;28;20056;-76
2023/10/27 01:34:22;;;;;;;18.02;11.35;;;10.00;99.90;;;;;;5076306;28;20075;-76
2023/10/27 01:36:49;;;;;;;14.80;9.75;;;10.00;99.90;;;;;;5071098;28;20581;-76
2023/10/27 01:39:16;;;;;;;16.17;10.73;;;10.10;99.90;;;;;;5075908;28;20052;-74
2023/10/27 01:41:44;;;;;;;17.65;11.18;;;10.00;99.90;;;;;;5070898;28;20147;-75
2023/10/27 01:44:11;;;;;;;16.17;10.77;;;10.00;99.90;;;;;;5076063;28;20044;-75
2023/10/27 01:46:38;;;;;;;15.98;10.75;;;10.00;99.90;;;;;;5075636;28;20044;-75
2023/10/27 01:49:05;;;;;;;15.85;10.27;;;10.00;99.90;;;;;;5075446;28;20114;-76
2023/10/27 01:51:32;;;;;;;16.83;10.50;;;10.10;99.90;;;;;;5075528;28;20051;-76
2023/10/27 01:53:58;;;;;;;18.52;11.55;;;10.10;99.90;;;;;;5075903;28;20040;-76
2023/10/27 01:56:25;;;;;;;17.42;11.27;;;10.00;99.90;;;;;;5070429;28;20040;-75
2023/10/27 01:58:53;;;;;;;18.13;11.45;;;10.00;99.90;;;;;;5075577;28;20044;-75
2023/10/27 02:01:21;;;;;;;16.95;11.85;;;10.00;99.90;;;;;;5071583;28;20056;-75
2023/10/27 02:03:48;;;;;;;19.05;11.43;;;10.00;99.90;;;;;;5075453;28;20052;-76
2023/10/27 02:06:14;;;;;;;19.17;11.73;;;10.00;99.90;;;;;;5076106;28;20089;-75
2023/10/27 02:08:41;;;;;;;18.13;11.35;;;10.00;99.90;;;;;;5076134;28;20060;-76
2023/10/27 02:11:08;;;;;;;20.13;12.73;;;10.00;99.90;;;;;;5075138;28;20097;-76
2023/10/27 02:13:35;;;;;;;18.45;11.98;;;10.00;99.90;;;;;;5075500;28;20710;-77
2023/10/27 02:16:07;;;;;;;19.60;12.95;;;10.00;99.90;;;;;;5075264;28;20040;-76
2023/10/27 02:18:34;;;;;;;17.17;12.07;;;9.90;99.90;;;;;;5075104;28;20380;-77
2023/10/27 02:21:01;;;;;;;22.20;13.13;;;9.90;99.90;;;;;;5075232;28;20491;-76
2023/10/27 02:23:28;;;;;;;19.27;12.43;;;9.80;99.90;;;;;;5093230;28;20101;-76
2023/10/27 02:25:55;;;;;;;19.92;12.43;;;9.80;99.90;;;;;;5074560;28;20063;-76
2023/10/27 02:28:22;;;;;;;20.42;13.20;;;9.80;99.90;;;;;;5075372;28;20115;-73
2023/10/27 02:30:49;;;;;;;17.63;12.05;;;9.80;99.90;;;;;;5074644;28;20101;-75
2023/10/27 02:33:17;;;;;;;17.98;12.90;;;9.70;99.90;;;;;;5075155;28;20048;-76
2023/10/27 02:35:44;;;;;;;22.83;14.13;;;9.70;99.90;;;;;;5075048;28;20044;-75
2023/10/27 02:38:11;;;;;;;18.13;12.23;;;9.70;99.90;;;;;;5074697;28;20047;-75
2023/10/27 02:40:38;;;;;;;21.48;12.27;;;9.70;99.90;;;;;;5074587;28;20047;-76
2023/10/27 02:43:05;;;;;;;16.05;12.05;;;9.70;99.90;;;;;;5075041;28;20048;-76
2023/10/27 02:45:31;;;;;;;17.70;11.52;;;9.70;99.90;;;;;;5074388;28;20040;-75
2023/10/27 02:47:58;;;;;;;15.82;10.48;;;9.70;99.90;;;;;;5074675;28;20052;-75
2023/10/27 02:50:26;;;;;;;15.68;10.88;;;9.70;99.90;;;;;;5074822;28;20051;-74
2023/10/27 02:52:53;;;;;;;16.92;11.27;;;9.70;99.90;;;;;;5074234;28;20060;-75
2023/10/27 02:55:20;;;;;;;15.85;11.48;;;9.80;99.90;;;;;;5092492;28;20047;-73
2023/10/27 02:57:47;;;;;;;15.35;11.27;;;9.70;99.90;;;;;;5074566;28;20048;-73
2023/10/27 03:00:14;;;;;;;16.52;11.35;;;9.70;99.90;;;;;;5074096;28;20113;-73
2023/10/27 03:02:41;;;;;;;15.45;11.00;;;9.70;99.90;;;;;;5073061;28;20066;-74
2023/10/27 03:05:09;;;;;;;16.15;11.32;;;9.70;99.90;;;;;;5074645;28;20514;-73
2023/10/27 03:07:37;;;;;;;13.40;10.35;;;9.70;99.90;;;;;;5073675;28;20079;-75
2023/10/27 03:10:06;;;;;;;17.73;11.93;;;9.70;99.90;;;;;;5074728;28;20043;-73
2023/10/27 03:12:36;;;;;;;16.23;11.02;;;9.60;99.90;;;;;;5070505;28;20518;-73
2023/10/27 03:15:03;;;;;;;16.80;11.15;;;9.60;99.90;;;;;;5073257;28;20093;-73
2023/10/27 03:17:30;;;;;;;17.83;11.20;;;9.60;99.90;;;;;;5074454;28;20044;-74
2023/10/27 03:19:57;;;;;;;16.25;10.70;;;9.60;99.90;;;;;;5070116;28;20377;-74
2023/10/27 03:22:24;;;;;;;15.15;10.55;;;9.50;99.90;;;;;;5072721;28;20044;-74
2023/10/27 03:24:52;;;;;;;17.75;12.13;;;9.50;99.90;;;;;;5074337;28;20052;-74
2023/10/27 03:27:19;;;;;;;15.85;10.13;;;9.50;99.90;;;;;;5073748;28;20110;-75
2023/10/27 03:29:46;;;;;;;16.88;11.10;;;9.40;99.90;;;;;;5074173;28;20040;-75
2023/10/27 03:32:13;;;;;;;15.98;10.55;;;9.40;99.90;;;;;;5073514;28;20123;-77
2023/10/27 03:34:39;;;;;;;14.45;10.80;;;9.40;99.90;;;;;;5072357;28;20055;-72
2023/10/27 03:37:06;;;;;;;16.25;10.75;;;9.30;99.90;;;;;;5059295;28;20048;-76
2023/10/27 03:39:33;;;;;;;16.33;10.55;;;9.40;99.90;;;;;;5069474;28;20060;-76
2023/10/27 03:42:02;;;;;;;14.45;9.88;;;9.30;99.90;;;;;;5084225;28;21326;-75
2023/10/27 03:44:28;;;;;;;15.05;10.48;;;9.40;99.90;;;;;;5068677;28;20066;-76
2023/10/27 03:46:55;;;;;;;14.85;11.05;;;9.30;99.90;;;;;;5071261;28;20044;-76
2023/10/27 03:49:22;;;;;;;16.27;11.27;;;9.30;99.90;;;;;;5084412;28;20492;-76
2023/10/27 03:51:49;;;;;;;16.73;11.02;;;9.40;99.90;;;;;;5072006;28;20059;-75
2023/10/27 03:54:16;;;;;;;16.42;11.25;;;9.40;99.90;;;;;;5067611;28;20121;-76
2023/10/27 03:56:43;;;;;;;17.65;11.27;;;9.40;99.90;;;;;;5071799;28;20094;-76
2023/10/27 03:59:11;;;;;;;16.83;11.57;;;9.40;99.90;;;;;;5070254;28;20048;-76
2023/10/27 04:01:40;;;;;;;16.10;10.80;;;9.40;99.90;;;;;;5090101;28;20048;-76
2023/10/27 04:04:07;;;;;;;15.75;11.25;;;9.40;99.90;;;;;;5087757;28;20097;-76
2023/10/27 04:06:34;;;;;;;18.77;11.75;;;9.50;99.90;;;;;;5070853;28;20048;-76
2023/10/27 04:09:02;;;;;;;17.35;11.75;;;9.50;99.90;;;;;;5065405;28;20048;-75
2023/10/27 04:11:29;;;;;;;17.05;11.50;;;9.50;99.90;;;;;;5066938;28;20230;-76
2023/10/27 04:13:56;;;;;;;15.02;10.45;;;9.50;99.90;;;;;;5070459;28;20073;-76
2023/10/27 04:16:24;;;;;;;17.52;11.05;;;9.50;99.90;;;;;;5066715;28;20059;-76
2023/10/27 04:18:51;;;;;;;15.23;11.18;;;9.40;99.90;;;;;;5069635;28;20048;-76
2023/10/27 04:21:18;;;;;;;16.48;10.98;;;9.40;99.90;;;;;;5067542;28;20052;-77
2023/10/27 04:23:44;;;;;;;17.30;10.30;;;9.40;99.90;;;;;;5064878;28;20493;-76
2023/10/27 04:26:12;;;;;;;16.50;10.90;;;9.50;99.90;;;;;;5070641;28;20123;-76
2023/10/27 04:28:39;;;;;;;14.07;10.05;;;9.40;99.90;;;;;;5068436;28;20465;-77
2023/10/27 04:31:06;;;;;;;17.75;11.00;;;9.40;99.90;;;;;;5067989;28;20488;-76
2023/10/27 04:33:37;;;;;;;16.23;10.27;;;9.40;99.90;;;;;;5070801;28;20040;-76
2023/10/27 04:36:05;;;;;;;15.88;10.43;;;9.40;99.90;;;;;;5067159;28;20117;-76
2023/10/27 04:38:31;;;;;;;16.45;10.77;;;9.30;99.90;;;;;;5082066;28;20048;-74
2023/10/27 04:40:58;;;;;;;16.23;10.52;;;9.30;99.90;;;;;;5068833;28;20059;-74
2023/10/27 04:43:25;;;;;;;15.02;10.02;;;9.30;99.90;;;;;;5071178;28;20048;-75
2023/10/27 04:45:52;;;;;;;16.92;11.55;;;9.30;99.90;;;;;;5072142;28;20052;-75
2023/10/27 04:48:19;;;;;;;17.75;12.50;;;9.30;99.90;;;;;;5075758;28;20043;-76
2023/10/27 04:50:53;;;;;;;16.90;11.43;;;9.30;99.90;;;;;;5072208;28;20573;-75
2023/10/27 04:53:20;;;;;;;19.85;12.38;;;9.20;99.90;;;;;;5075444;28;20146;-75
2023/10/27 04:55:47;;;;;;;17.52;13.07;;;9.20;99.90;;;;;;5070683;28;20051;-76
2023/10/27 04:58:13;;;;;;;22.70;14.05;;;9.20;99.90;;;;;;5072632;28;20561;-74
2023/10/27 05:00:40;;;;;;;18.00;13.25;;;9.20;99.90;;;;;;5070341;28;20500;-74
2023/10/27 05:03:08;;;;;;;19.63;13.20;;;9.20;99.90;;;;;;5072687;28;20495;-76
2023/10/27 05:05:35;;;;;;;19.80;13.27;;;9.10;99.90;;;;;;5070257;28;20044;-77
2023/10/27 05:08:04;;;;;;;20.83;13.80;;;9.10;99.90;;;;;;5072290;28;20082;-77
2023/10/27 05:10:31;;;;;;;20.63;12.52;;;9.10;99.90;;;;;;5071396;28;20048;-73
2023/10/27 05:12:58;;;;;;;20.88;14.13;;;9.10;99.90;;;;;;5093291;28;20048;-71
2023/10/27 05:15:26;;;;;;;19.92;13.07;;;9.10;99.90;;;;;;5067422;28;20403;-74
2023/10/27 05:17:52;;;;;;;19.30;12.77;;;9.20;99.90;;;;;;5063393;28;20134;-76
2023/10/27 05:20:20;;;;;;;21.33;13.70;;;9.20;99.90;;;;;;5070730;28;20057;-74
2023/10/27 05:22:46;;;;;;;22.58;13.85;;;9.20;99.90;;;;;;5072416;28;20131;-75
2023/10/27 05:25:15;;;;;;;20.80;14.15;;;9.20;99.90;;;;;;5074723;28;20097;-76
2023/10/27 05:27:42;;;;;;;23.60;13.55;;;9.20;99.90;;;;;;5069833;28;20492;-76
2023/10/27 05:30:10;;;;;;;19.42;13.07;;;9.30;99.90;;;;;;5074056;28;20253;-73
2023/10/27 05:32:36;;;;;;;18.15;12.75;;;9.30;99.90;;;;;;5070772;28;20105;-73
2023/10/27 05:35:04;;;;;;;19.52;12.70;;;9.30;99.90;;;;;;5073402;28;20056;-73
2023/10/27 05:37:31;;;;;;;20.80;12.25;;;9.30;99.90;;;;;;5072203;28;20052;-73
2023/10/27 05:39:58;;;;;;;19.55;12.90;;;9.40;99.90;;;;;;5074318;28;20052;-73
2023/10/27 05:42:26;;;;;;;18.40;12.98;;;9.40;99.90;;;;;;5071035;28;20064;-73
2023/10/27 05:44:53;;;;;;;21.45;12.27;;;9.40;99.90;;;;;;5074008;28;20105;-73
2023/10/27 05:47:20;;;;;;;16.45;11.95;;;9.50;99.90;;;;;;5072629;28;20056;-74
2023/10/27 05:49:47;;;;;;;16.40;11.57;;;9.50;99.90;;;;;;5069695;28;20044;-74
2023/10/27 05:52:14;;;;;;;16.00;11.43;;;9.50;99.90;;;;;;5074730;28;20056;-74
2023/10/27 05:54:43;;;;;;;17.60;11.73;;;9.50;99.90;;;;;;5071002;28;20445;-73
2023/10/27 05:57:10;;;;;;;18.25;11.90;;;9.50;99.90;;;;;;5084590;28;20047;-73
2023/10/27 05:59:38;;;;;;;16.05;11.13;;;9.60;99.90;;;;;;5080539;28;20117;-73
2023/10/27 06:02:05;;;;;;;17.88;11.48;;;9.60;99.90;;;;;;5070117;28;20048;-73
2023/10/27 06:04:34;;;;;;;17.35;12.05;;;9.60;99.90;;;;;;5068105;28;20044;-73
2023/10/27 06:07:01;;;;;;;18.60;11.95;;;9.60;99.90;;;;;;5068457;28;20471;-72
2023/10/27 06:09:29;;;;;;;18.02;11.43;;;9.60;99.90;;;;;;5069364;28;20059;-73
2023/10/27 06:11:57;;;;;;;19.15;11.38;;;9.60;99.90;;;;;;5070523;28;20048;-73
2023/10/27 06:14:24;;;;;;;17.95;12.07;;;9.60;99.90;;;;;;5066351;28;20044;-72
2023/10/27 06:16:52;;;;;;;19.02;10.88;;;9.70;99.90;;;;;;5068718;28;20062;-73
2023/10/27 06:19:19;;;;;;;17.15;11.65;;;9.70;99.90;;;;;;5074301;28;20454;-72
2023/10/27 06:21:47;;;;;;;15.27;10.98;;;9.70;99.90;;;;;;5091008;28;20070;-72
2023/10/27 06:24:14;;;;;;;15.82;10.88;;;9.70;99.90;;;;;;5071924;28;20044;-72
2023/10/27 06:26:41;;;;;;;19.10;12.05;;;9.70;99.90;;;;;;5075173;28;20047;-73
2023/10/27 06:29:08;;;;;;;16.05;10.45;;;9.70;99.90;;;;;;5074878;28;20069;-71
2023/10/27 06:31:35;;;;;;;16.88;10.65;;;9.70;99.90;;;;;;5069984;28;20507;-71
2023/10/27 06:34:03;;;;;;;16.15;10.43;;;9.70;99.90;;;;;;5075234;28;20044;-70
2023/10/27 06:36:32;;;;;;;16.25;10.85;;;9.70;99.90;;;;;;5092636;28;20047;-68
2023/10/27 06:39:02;;;;;;;16.02;10.48;;;9.90;99.90;;;;;;5092234;28;20044;-71
2023/10/27 06:41:29;;;;;;;15.73;10.77;;;9.70;99.90;;;;;;5073994;28;20131;-71
2023/10/27 06:43:56;;;;;;;13.38;10.00;;;9.70;99.90;;;;;;5074072;28;20165;-72
2023/10/27 06:46:23;;;;;;;15.55;10.50;;;9.70;99.90;;;;;;5070277;28;20105;-72
2023/10/27 06:48:52;;;;;;;16.58;10.85;;;9.80;99.90;;;;;;5067812;28;20130;-72
2023/10/27 06:51:20;;;;;;;15.45;10.90;;;9.80;99.90;;;;;;5073685;28;20048;-73
2023/10/27 06:53:47;;;;;;;14.25;9.40;;;9.80;99.90;;;;;;5074682;28;20044;-73
2023/10/27 06:56:14;;;;;;;15.13;10.35;;;9.80;99.90;;;;;;5068517;28;20052;-71
2023/10/27 06:58:40;;;;;;;16.17;10.57;;;9.80;99.90;;;;;;5073610;28;20051;-73
2023/10/27 07:01:08;;;;;;;16.52;11.25;;;9.80;99.90;;;;;;5070484;28;20121;-72
2023/10/27 07:03:35;;;;;;;14.40;10.00;;;9.80;99.90;;;;;;5070650;28;20102;-72
2023/10/27 07:06:03;;;;;;;13.95;10.07;;;9.90;99.90;;;;;;5070405;28;20086;-72
2023/10/27 07:08:31;;;;;;;14.70;9.88;;;9.80;99.90;;;;;;5069787;28;20293;-72
2023/10/27 07:10:59;;;;;;;13.52;9.23;;;9.90;99.90;;;;;;5068759;28;20044;-72
2023/10/27 07:13:26;;;;;;;13.32;9.15;;;9.90;99.90;;;;;;5070063;28;20135;-71
2023/10/27 07:15:53;;;;;;;12.95;9.35;;;9.90;99.90;;;;;;5066167;28;20068;-71
2023/10/27 07:18:20;;;;;;;15.25;10.30;;;9.90;99.90;;;;;;5071280;28;20102;-73
2023/10/27 07:20:47;;;;;;;12.27;9.07;;;9.90;99.90;;;;;;5065788;28;20462;-71
2023/10/27 07:23:14;;;;;;;12.93;8.90;;;9.90;99.90;;;;;;5070497;28;20087;-71
2023/10/27 07:25:42;;;;;;;12.77;8.27;;;9.90;99.90;;;;;;5070353;28;20055;-73
2023/10/27 07:28:09;;;;;;;12.43;9.02;;;9.90;99.90;;;;;;5067233;28;20044;-73
2023/10/27 07:30:36;;;;;;;13.48;8.35;;;9.90;99.90;;;;;;5057273;28;20451;-72
2023/10/27 07:33:06;;;;;;;13.20;8.45;;;10.00;99.90;;;;;;5013373;28;20137;-76
2023/10/27 07:35:33;;;;;;;11.70;8.27;;;10.00;99.90;;;;;;5058783;28;20098;-72
2023/10/27 07:38:00;;;;;;;11.50;8.38;;;10.10;99.90;;;;;;5065564;28;20102;-70
2023/10/27 07:40:28;;;;;;;11.98;8.18;;;10.10;99.90;;;;;;5065782;28;20048;-71
2023/10/27 07:42:58;;;;;;;12.00;8.75;;;10.10;99.90;;;;;;5070594;28;20392;-71
2023/10/27 07:45:25;;;;;;;12.35;8.40;;;10.10;99.90;;;;;;5070396;28;20114;-71
2023/10/27 07:47:52;;;;;;;11.48;7.65;;;10.20;99.90;;;;;;5067488;28;20099;-72
2023/10/27 07:50:19;;;;;;;11.23;8.73;;;10.20;99.90;;;;;;5070438;28;20045;-72
2023/10/27 07:52:46;;;;;;;11.38;7.72;;;10.20;99.90;;;;;;5070345;28;20044;-72
2023/10/27 07:55:13;;;;;;;12.98;8.10;;;10.20;99.90;;;;;;5065494;28;20115;-72
2023/10/27 07:57:40;;;;;;;13.38;8.27;;;10.30;99.90;;;;;;5070493;28;20102;-72
2023/10/27 08:00:10;;;;;;;10.68;7.82;;;10.30;99.90;;;;;;5073701;28;20048;-72
2023/10/27 08:02:38;;;;;;;10.03;7.70;;;10.40;99.90;;;;;;5073181;28;20097;-72
2023/10/27 08:05:06;;;;;;;11.98;8.48;;;10.40;99.90;;;;;;5069877;28;20080;-72
2023/10/27 08:07:35;;;;;;;11.02;8.25;;;10.40;99.90;;;;;;5073380;28;20511;-72
2023/10/27 08:10:02;;;;;;;11.82;8.43;;;10.50;99.90;;;;;;5073224;28;20083;-73
2023/10/27 08:12:28;;;;;;;10.90;7.60;;;10.50;99.90;;;;;;5073738;28;20127;-72
2023/10/27 08:14:55;;;;;;;11.07;8.48;;;10.60;99.90;;;;;;5073491;28;20101;-72
2023/10/27 08:17:24;;;;;;;12.82;9.48;;;10.60;99.90;;;;;;5072945;28;20093;-72
2023/10/27 08:19:51;;;;;;;12.23;8.48;;;10.70;99.90;;;;;;5074425;28;20052;-71
2023/10/27 08:22:17;;;;;;;10.38;8.07;;;10.70;99.90;;;;;;5077420;28;20052;-71
2023/10/27 08:24:44;;;;;;;12.70;8.55;;;10.70;99.90;;;;;;5072433;28;20048;-72
2023/10/27 08:27:11;;;;;;;13.10;7.75;;;10.80;99.90;;;;;;5076806;28;20557;-71
2023/10/27 08:29:38;;;;;;;11.82;7.78;;;10.80;99.90;;;;;;5076369;28;20055;-73
2023/10/27 08:32:06;;;;;;;10.60;7.88;;;10.90;99.90;;;;;;5077285;28;20104;-72
2023/10/27 08:34:36;;;;;;;11.05;8.25;;;10.90;99.90;;;;;;5077066;28;20135;-72
2023/10/27 08:37:03;;;;;;;14.00;8.40;;;10.90;99.90;;;;;;5091284;28;20044;-72
2023/10/27 08:39:33;;;;;;;11.98;8.77;;;11.00;99.90;;;;;;5076567;28;20040;-72
2023/10/27 08:42:00;;;;;;;11.73;8.02;;;11.20;99.90;;;;;;5076991;28;20105;-72
2023/10/27 08:44:27;;;;;;;9.88;7.85;;;11.10;99.90;;;;;;5076503;28;20403;-71
2023/10/27 08:46:54;;;;;;;9.10;6.82;;;11.10;99.90;;;;;;5076874;28;20062;-71
2023/10/27 08:49:21;;;;;;;11.18;7.82;;;11.20;99.90;;;;;;5076320;28;20109;-71
2023/10/27 08:51:49;;;;;;;13.82;7.65;;;11.20;99.90;;;;;;5076222;28;20048;-72
2023/10/27 08:54:16;;;;;;;9.82;7.20;;;11.10;99.90;;;;;;5076916;28;20056;-73
2023/10/27 08:56:43;;;;;;;11.70;7.78;;;11.20;99.90;;;;;;5076733;28;20143;-72
2023/10/27 08:59:10;;;;;;;11.32;7.85;;;11.10;99.90;;;;;;5075967;28;20047;-72
2023/10/27 09:01:37;;;;;;;10.60;7.43;;;11.00;99.90;;;;;;5076366;28;20056;-72
2023/10/27 09:04:10;;;;;;;9.43;6.45;;;11.10;99.90;;;;;;5076519;28;20075;-72
2023/10/27 09:06:38;;;;;;;9.90;6.85;;;11.10;99.90;;;;;;5073020;28;20048;-72
2023/10/27 09:09:09;;;;;;;10.75;6.97;;;11.10;99.90;;;;;;5076193;28;20044;-72
2023/10/27 09:11:41;;;;;;;7.82;6.07;;;11.10;99.90;;;;;;5076244;28;20091;-72
2023/10/27 09:14:18;;;;;;;8.73;6.40;;;11.10;99.90;;;;;;5076159;28;20052;-71
2023/10/27 09:16:45;;;;;;;7.78;5.97;;;11.10;99.90;;;;;;5076297;28;20048;-72
2023/10/27 09:19:24;;;;;;;9.98;5.93;;;11.10;99.90;;;;;;5075889;28;20142;-72
2023/10/27 09:21:52;;;;;;;7.47;5.97;;;11.20;99.90;;;;;;5074843;28;20412;-72
2023/10/27 09:24:24;;;;;;;8.52;6.25;;;11.20;99.90;;;;;;5076296;28;20052;-72
2023/10/27 09:26:52;;;;;;;7.55;5.38;;;11.20;99.90;;;;;;5071685;28;20051;-72
2023/10/27 09:29:19;;;;;;;8.85;6.32;;;11.30;99.90;;;;;;5075830;28;20051;-72
2023/10/27 09:31:46;;;;;;;13.52;5.60;;;11.30;99.90;;;;;;5074659;28;20043;-72
2023/10/27 09:34:18;;;;;;;6.82;5.03;;;11.30;99.90;;;;;;5075466;28;20516;-72
2023/10/27 09:36:46;;;;;;;7.30;5.85;;;11.30;99.90;;;;;;5075975;28;20522;-71
2023/10/27 09:39:18;;;;;;;6.93;5.28;;;11.40;99.90;;;;;;5075765;28;20135;-72
2023/10/27 09:41:48;;;;;;;7.22;5.55;;;11.30;99.90;;;;;;5075373;28;20055;-72
2023/10/27 09:44:16;;;;;;;7.07;5.20;;;11.40;99.90;;;;;;5070312;28;20496;-73
2023/10/27 09:46:51;;;;;;;7.20;5.47;;;11.50;99.90;;;;;;5065913;28;20123;-73
2023/10/27 09:49:26;;;;;;;7.03;5.13;;;11.50;99.90;;;;;;5067467;28;20063;-73
2023/10/27 09:51:59;;;;;;;6.90;5.38;;;11.60;99.90;;;;;;5070004;28;20122;-72
2023/10/27 09:54:29;;;;;;;6.90;5.40;;;11.60;99.90;;;;;;5074266;28;20075;-72
2023/10/27 09:56:59;;;;;;;10.00;5.10;;;11.70;99.90;;;;;;5062278;28;20064;-71
2023/10/27 09:59:26;;;;;;;6.22;4.88;;;11.80;99.90;;;;;;5067956;28;20052;-72
2023/10/27 10:01:55;;;;;;;6.32;4.85;;;11.90;99.90;;;;;;5072477;28;20101;-71
2023/10/27 10:04:57;;;;;;;7.93;5.00;;;12.00;99.90;;;;;;5063102;28;20051;-71
2023/10/27 10:07:34;;;;;;;6.70;5.13;;;12.10;99.90;;;;;;5066560;28;20072;-72
2023/10/27 10:10:17;;;;;;;6.13;4.55;;;12.10;99.90;;;;;;5069062;28;20052;-72
2023/10/27 10:13:09;;;;;;;6.65;4.45;;;12.20;99.90;;;;;;5069978;28;20409;-73
2023/10/27 10:15:40;;;;;;;5.70;4.55;;;12.20;99.90;;;;;;5070090;28;20059;-72
2023/10/27 10:18:09;;;;;;;6.22;4.93;;;12.30;99.90;;;;;;5073751;28;20056;-73
2023/10/27 10:20:58;;;;;;;6.68;4.57;;;12.20;99.90;;;;;;5069489;28;20403;-72
2023/10/27 10:24:07;;;;;;;7.15;4.50;;;12.20;99.90;;;;;;5069408;28;20079;-73
2023/10/27 10:27:10;;;;;;;8.65;4.20;;;12.20;99.90;;;;;;5087189;28;20052;-73
2023/10/27 10:29:38;;;;;;;8.60;4.80;;;12.20;99.90;;;;;;5086318;28;20465;-71
2023/10/27 10:32:31;;;;;;;6.35;4.47;;;12.10;99.90;;;;;;5069270;28;20055;-71
2023/10/27 10:35:22;;;;;;;6.50;5.00;;;12.10;99.90;;;;;;5069606;28;20083;-72
2023/10/27 10:37:51;;;;;;;6.85;4.95;;;12.10;99.90;;;;;;5056165;28;20128;-71
2023/10/27 10:40:22;;;;;;;7.40;5.05;;;12.20;99.90;;;;;;5069946;28;20044;-72
2023/10/27 10:43:27;;;;;;;6.43;4.57;;;12.10;99.90;;;;;;5084824;28;20072;-71
2023/10/27 10:45:56;;;;;;;5.78;4.25;;;12.10;99.90;;;;;;5069433;28;20507;-73
2023/10/27 10:48:25;;;;;;;6.55;4.70;;;12.20;99.90;;;;;;5065982;28;20136;-71
2023/10/27 10:50:53;;;;;;;9.85;5.00;;;12.20;99.90;;;;;;5068717;28;20135;-73
2023/10/27 10:53:22;;;;;;;8.57;5.30;;;12.20;99.90;;;;;;5068322;28;20052;-72
2023/10/27 10:55:50;;;;;;;8.23;5.55;;;12.20;99.90;;;;;;5071183;28;20056;-70
2023/10/27 10:58:24;;;;;;;8.88;5.65;;;12.10;99.90;;;;;;5067397;28;20495;-71
2023/10/27 11:00:51;;;;;;;7.30;5.20;;;12.10;99.90;;;;;;5070789;28;20109;-72
2023/10/27 11:03:22;;;;;;;8.77;5.07;;;12.10;99.90;;;;;;5069035;28;20051;-71
2023/10/27 11:05:50;;;;;;;8.10;5.40;;;12.90;99.90;;;;;;5064257;28;20090;-72
2023/10/27 11:08:25;;;;;;;8.00;5.60;;;12.00;99.90;;;;;;5070269;28;20056;-72
2023/10/27 11:11:02;;;;;;;7.72;5.65;;;12.00;99.90;;;;;;5072991;28;20067;-73
2023/10/27 11:13:29;;;;;;;7.70;4.97;;;11.90;99.90;;;;;;5069626;28;20051;-71
2023/10/27 11:15:57;;;;;;;8.20;6.18;;;11.80;99.90;;;;;;5071469;28;20109;-71
2023/10/27 11:18:28;;;;;;;9.85;6.53;;;11.80;99.90;;;;;;5070143;28;20048;-72
2023/10/27 11:20:55;;;;;;;8.40;6.03;;;11.80;99.90;;;;;;5068466;28;20044;-71
2023/10/27 11:23:26;;;;;;;8.68;6.22;;;11.70;99.90;;;;;;5071263;28;20105;-71
2023/10/27 11:26:02;;;;;;;9.63;6.75;;;11.80;99.90;;;;;;5069852;28;20497;-71
2023/10/27 11:28:29;;;;;;;10.00;6.35;;;11.70;99.90;;;;;;5071685;28;20101;-73
2023/10/27 11:31:06;;;;;;;9.65;6.65;;;11.70;99.90;;;;;;5069444;28;20045;-73
2023/10/27 11:33:37;;;;;;;9.05;6.40;;;11.70;99.90;;;;;;5070503;28;20060;-72
2023/10/27 11:36:06;;;;;;;9.65;6.43;;;11.70;99.90;;;;;;5071647;28;20051;-72
2023/10/27 11:38:33;;;;;;;9.60;6.65;;;11.60;99.90;;;;;;5070753;28;20048;-73
2023/10/27 11:41:13;;;;;;;10.55;7.38;;;11.60;99.90;;;;;;5070828;28;20464;-73
2023/10/27 11:43:41;;;;;;;12.00;8.02;;;11.70;99.90;;;;;;5070449;28;20054;-73
2023/10/27 11:46:15;;;;;;;9.07;7.10;;;11.60;99.90;;;;;;5085062;28;20051;-71
2023/10/27 11:48:44;;;;;;;12.70;7.95;;;11.60;99.90;;;;;;5069919;28;20052;-71
2023/10/27 11:51:12;;;;;;;10.93;6.82;;;11.60;99.90;;;;;;5071410;28;20047;-72
2023/10/27 11:53:43;;;;;;;12.35;7.63;;;11.60;99.90;;;;;;5070377;28;20067;-72
2023/10/27 11:56:10;;;;;;;11.23;7.82;;;11.60;99.90;;;;;;5074293;28;20557;-71
2023/10/27 11:58:38;;;;;;;12.40;7.95;;;11.60;99.90;;;;;;5072205;28;20110;-71
2023/10/27 12:01:06;;;;;;;12.38;8.02;;;11.60;99.90;;;;;;5074926;28;20098;-73
2023/10/27 12:03:33;;;;;;;12.57;7.85;;;11.60;99.90;;;;;;5073409;28;20056;-72
2023/10/27 12:06:02;;;;;;;12.57;8.95;;;11.50;99.90;;;;;;5074964;28;20060;-72
2023/10/27 12:08:29;;;;;;;14.55;8.18;;;11.60;99.90;;;;;;5091314;28;20054;-72
2023/10/27 12:10:56;;;;;;;11.55;8.30;;;11.50;99.90;;;;;;5094337;28;20094;-72
2023/10/27 12:13:24;;;;;;;11.30;8.13;;;11.50;99.90;;;;;;5073342;28;20083;-73
2023/10/27 12:15:51;;;;;;;11.82;8.38;;;11.50;99.90;;;;;;5067957;28;20492;-73
2023/10/27 12:18:19;;;;;;;10.95;7.78;;;11.50;99.90;;;;;;5074492;28;20047;-72
2023/10/27 12:20:46;;;;;;;12.38;9.20;;;11.50;99.90;;;;;;5073496;28;20485;-73
2023/10/27 12:23:15;;;;;;;12.27;8.30;;;11.50;99.90;;;;;;5074214;28;20050;-75
2023/10/27 12:25:43;;;;;;;13.63;9.05;;;11.50;99.90;;;;;;5070817;28;20052;-73
2023/10/27 12:28:10;;;;;;;14.35;8.60;;;11.50;99.90;;;;;;5074224;28;20499;-71
2023/10/27 12:30:37;;;;;;;11.27;8.10;;;11.60;99.90;;;;;;5068702;28;20044;-71
2023/10/27 12:33:04;;;;;;;13.02;8.23;;;11.50;99.90;;;;;;5076243;28;20048;-70
2023/10/27 12:35:31;;;;;;;10.73;7.53;;;11.50;99.90;;;;;;5068656;28;20060;-71
2023/10/27 12:37:58;;;;;;;13.18;8.57;;;11.40;99.90;;;;;;5074679;28;20089;-73
2023/10/27 12:40:26;;;;;;;10.65;7.95;;;11.40;99.90;;;;;;5068754;28;20040;-73
2023/10/27 12:42:53;;;;;;;12.48;8.43;;;11.50;99.90;;;;;;5074066;28;20097;-73
2023/10/27 12:45:20;;;;;;;11.52;7.78;;;11.40;99.90;;;;;;5071423;28;20048;-72